Time;durP1;ratioP1;P1;durP2;ratioP2;P2;SDS_P1;SDS_P2;PMS_P1;PMS_P2;Temp;Humidity;BMP_temperature;BMP_pressure;BME280_temperature;BME280_humidity;BME280_pressure;Samples;Min_cycle;Max_cycle;Signal;HPM_P1;HPM_P2
2021/11/01 00:01:36;;;;;;;21.07;17.80;;;10.10;99.90;;;;;;5072191;28;20447;-79
2021/11/01 00:04:03;;;;;;;20.87;15.83;;;10.10;99.90;;;;;;5072130;28;20444;-78
2021/11/01 00:06:32;;;;;;;19.80;16.57;;;10.10;99.90;;;;;;5072216;28;20439;-78
2021/11/01 00:08:59;;;;;;;20.00;16.20;;;10.10;99.90;;;;;;5071858;28;20444;-78
2021/11/01 00:11:26;;;;;;;19.87;17.33;;;10.10;99.90;;;;;;5071870;28;20554;-78
2021/11/01 00:13:53;;;;;;;19.23;16.80;;;10.00;99.90;;;;;;5072001;28;20811;-78
2021/11/01 00:16:20;;;;;;;17.93;15.90;;;10.10;99.90;;;;;;5071874;28;20792;-77
2021/11/01 00:18:46;;;;;;;18.53;15.40;;;10.10;99.90;;;;;;5071899;28;20542;-77
2021/11/01 00:21:13;;;;;;;19.13;17.17;;;10.10;99.90;;;;;;5071752;28;20484;-77
2021/11/01 00:23:41;;;;;;;18.23;16.20;;;10.10;99.90;;;;;;5071963;28;20471;-77
2021/11/01 00:26:08;;;;;;;21.37;16.73;;;10.10;99.90;;;;;;5071405;28;20581;-77
2021/11/01 00:28:35;;;;;;;19.60;16.27;;;10.00;99.90;;;;;;5071801;28;20538;-77
2021/11/01 00:31:02;;;;;;;19.50;17.20;;;10.00;99.90;;;;;;5074172;28;20509;-79
2021/11/01 00:33:28;;;;;;;23.47;17.10;;;10.00;99.90;;;;;;5071607;28;20539;-79
2021/11/01 00:36:00;;;;;;;20.77;18.00;;;10.00;99.90;;;;;;5074093;28;20451;-78
2021/11/01 00:38:26;;;;;;;19.10;16.23;;;10.00;99.90;;;;;;5076367;28;20480;-78
2021/11/01 00:40:54;;;;;;;19.93;16.93;;;10.00;99.90;;;;;;5072150;28;20479;-79
2021/11/01 00:43:21;;;;;;;20.10;17.43;;;10.00;99.90;;;;;;5067658;28;20504;-78
2021/11/01 00:45:48;;;;;;;19.23;16.47;;;10.00;99.90;;;;;;5071707;28;20534;-78
2021/11/01 00:48:15;;;;;;;19.40;16.90;;;10.00;99.90;;;;;;5071401;28;20467;-78
2021/11/01 00:50:42;;;;;;;19.83;17.37;;;10.00;99.90;;;;;;5071437;28;20885;-78
2021/11/01 00:53:09;;;;;;;19.50;16.23;;;10.00;99.90;;;;;;5071699;28;20451;-78
2021/11/01 00:55:37;;;;;;;24.63;17.77;;;10.00;99.90;;;;;;5075184;28;20497;-77
2021/11/01 00:58:06;;;;;;;22.00;18.30;;;10.00;99.90;;;;;;5075168;28;20451;-78
2021/11/01 01:00:33;;;;;;;23.27;17.50;;;9.90;99.90;;;;;;5075396;28;20504;-78
2021/11/01 01:02:59;;;;;;;20.40;17.20;;;9.90;99.90;;;;;;5075118;28;20486;-78
2021/11/01 01:05:26;;;;;;;21.67;17.90;;;9.90;99.90;;;;;;5074825;28;20485;-77
2021/11/01 01:07:53;;;;;;;20.63;17.20;;;9.90;99.90;;;;;;5075125;28;20842;-77
2021/11/01 01:10:19;;;;;;;22.47;18.63;;;9.90;99.90;;;;;;5074297;28;20530;-78
2021/11/01 01:12:46;;;;;;;19.73;17.07;;;9.90;99.90;;;;;;5074500;28;20550;-77
2021/11/01 01:15:18;;;;;;;19.63;16.33;;;9.90;99.90;;;;;;5075000;28;20479;-77
2021/11/01 01:17:45;;;;;;;21.67;18.57;;;10.00;99.90;;;;;;5074706;28;20780;-77
2021/11/01 01:20:14;;;;;;;20.60;17.87;;;9.90;99.90;;;;;;5074729;28;20454;-78
2021/11/01 01:22:44;;;;;;;21.30;17.90;;;9.90;99.90;;;;;;5074916;28;20538;-78
2021/11/01 01:25:22;;;;;;;20.33;16.93;;;9.90;99.90;;;;;;5074448;28;20466;-78
2021/11/01 01:27:50;;;;;;;22.03;17.60;;;9.90;99.90;;;;;;5073257;28;20439;-78
2021/11/01 01:30:19;;;;;;;21.20;17.30;;;9.90;99.90;;;;;;5074324;28;20897;-78
2021/11/01 01:32:46;;;;;;;19.90;17.80;;;9.90;99.90;;;;;;5074404;28;20510;-78
2021/11/01 01:35:13;;;;;;;22.50;17.83;;;9.80;99.90;;;;;;5074664;28;20478;-78
2021/11/01 01:37:40;;;;;;;20.50;18.10;;;9.80;99.90;;;;;;5074319;28;20534;-78
2021/11/01 01:40:08;;;;;;;20.70;17.60;;;9.80;99.90;;;;;;5074440;28;20534;-78
2021/11/01 01:42:36;;;;;;;20.77;16.33;;;9.80;99.90;;;;;;5074322;28;20447;-78
2021/11/01 01:45:03;;;;;;;22.07;18.37;;;9.80;99.90;;;;;;5074469;28;20447;-81
2021/11/01 01:47:31;;;;;;;22.90;18.70;;;9.80;99.90;;;;;;5074495;28;20522;-78
2021/11/01 01:49:58;;;;;;;22.13;18.20;;;9.80;99.90;;;;;;5074281;28;20539;-78
2021/11/01 01:52:25;;;;;;;22.20;18.13;;;9.80;99.90;;;;;;5074226;28;20479;-77
2021/11/01 01:54:52;;;;;;;23.90;18.30;;;9.80;99.90;;;;;;5073850;28;20443;-77
2021/11/01 01:57:19;;;;;;;20.33;16.80;;;9.80;99.90;;;;;;5073847;28;20456;-77
2021/11/01 01:59:45;;;;;;;22.60;18.73;;;9.80;99.90;;;;;;5074267;28;20487;-77
2021/11/01 02:02:12;;;;;;;21.67;17.70;;;9.80;99.90;;;;;;5073834;28;21022;-77
2021/11/01 02:04:41;;;;;;;23.50;17.17;;;9.80;99.90;;;;;;5073906;28;20451;-77
2021/11/01 02:07:19;;;;;;;23.60;18.50;;;9.80;99.90;;;;;;5073359;28;20505;-78
2021/11/01 02:09:52;;;;;;;23.40;19.33;;;9.80;99.90;;;;;;5073667;28;20508;-78
2021/11/01 02:12:23;;;;;;;23.27;16.97;;;9.80;99.90;;;;;;5073562;28;20820;-78
2021/11/01 02:14:55;;;;;;;18.90;16.90;;;9.80;99.90;;;;;;5076304;28;20482;-77
2021/11/01 02:17:27;;;;;;;22.70;18.40;;;9.90;99.90;;;;;;5074563;28;20483;-77
2021/11/01 02:20:01;;;;;;;21.27;16.77;;;9.80;99.90;;;;;;5060869;28;20455;-77
2021/11/01 02:22:37;;;;;;;27.80;19.90;;;9.80;99.90;;;;;;5073498;28;20489;-77
2021/11/01 02:25:06;;;;;;;22.93;18.70;;;9.80;99.90;;;;;;5073226;28;20946;-78
2021/11/01 02:27:38;;;;;;;24.20;17.73;;;9.80;99.90;;;;;;5073786;28;20467;-77
2021/11/01 02:30:06;;;;;;;22.00;18.00;;;9.80;99.90;;;;;;5073082;28;20483;-77
2021/11/01 02:32:35;;;;;;;23.63;19.27;;;9.80;99.90;;;;;;5071354;28;20550;-77
2021/11/01 02:35:03;;;;;;;21.33;17.77;;;9.80;99.90;;;;;;5073489;28;20928;-77
2021/11/01 02:37:29;;;;;;;24.33;18.47;;;9.80;99.90;;;;;;5071584;28;20447;-77
2021/11/01 02:39:57;;;;;;;23.93;18.40;;;9.80;99.90;;;;;;5073749;28;20497;-78
2021/11/01 02:42:27;;;;;;;22.40;17.47;;;9.70;99.90;;;;;;5073496;28;20451;-78
2021/11/01 02:44:59;;;;;;;20.10;17.13;;;9.80;99.90;;;;;;5073649;28;20506;-78
2021/11/01 02:47:27;;;;;;;21.37;18.23;;;9.70;99.90;;;;;;5073473;28;20454;-78
2021/11/01 02:49:54;;;;;;;24.13;18.40;;;9.70;99.90;;;;;;5057149;28;20493;-77
2021/11/01 02:52:21;;;;;;;22.00;17.40;;;9.70;99.90;;;;;;5073576;28;20575;-78
2021/11/01 02:54:49;;;;;;;23.20;19.30;;;9.70;99.90;;;;;;5073508;28;20448;-77
2021/11/01 02:57:16;;;;;;;21.73;18.30;;;9.70;99.90;;;;;;5073331;28;20451;-77
2021/11/01 02:59:43;;;;;;;22.57;19.07;;;9.70;99.90;;;;;;5073128;28;20510;-77
2021/11/01 03:02:10;;;;;;;22.83;20.37;;;9.70;99.90;;;;;;5072865;28;20448;-77
2021/11/01 03:04:37;;;;;;;20.33;17.17;;;9.70;99.90;;;;;;5073569;28;20451;-77
2021/11/01 03:07:06;;;;;;;22.03;18.63;;;9.70;99.90;;;;;;5073174;28;20562;-77
2021/11/01 03:09:37;;;;;;;21.87;19.00;;;9.70;99.90;;;;;;5072965;28;20451;-78
2021/11/01 03:12:07;;;;;;;23.40;18.30;;;9.70;99.90;;;;;;5073016;28;20566;-78
2021/11/01 03:14:43;;;;;;;24.13;18.87;;;9.70;99.90;;;;;;5072542;28;20479;-78
2021/11/01 03:17:18;;;;;;;22.23;18.20;;;9.70;99.90;;;;;;5067123;28;20796;-78
2021/11/01 03:19:48;;;;;;;21.90;18.43;;;9.60;99.90;;;;;;5073050;28;20438;-77
2021/11/01 03:22:17;;;;;;;21.33;18.30;;;9.60;99.90;;;;;;5072524;28;20565;-77
2021/11/01 03:24:52;;;;;;;22.17;18.83;;;9.60;99.90;;;;;;5072914;28;20474;-77
2021/11/01 03:27:20;;;;;;;24.37;20.13;;;9.60;99.90;;;;;;5072488;28;20820;-79
2021/11/01 03:29:47;;;;;;;21.97;18.87;;;9.60;99.90;;;;;;5072928;28;20474;-78
2021/11/01 03:32:16;;;;;;;21.67;18.37;;;9.60;99.90;;;;;;5072670;28;20471;-78
2021/11/01 03:34:45;;;;;;;23.40;17.80;;;9.60;99.90;;;;;;5072797;28;20486;-78
2021/11/01 03:37:15;;;;;;;23.10;19.27;;;9.60;99.90;;;;;;5072781;28;20530;-77
2021/11/01 03:39:43;;;;;;;23.70;18.60;;;9.60;99.90;;;;;;5072600;28;20438;-77
2021/11/01 03:42:11;;;;;;;27.23;18.50;;;9.60;99.90;;;;;;5072639;28;20674;-78
2021/11/01 03:44:44;;;;;;;24.40;19.20;;;9.60;99.90;;;;;;5072743;28;20436;-78
2021/11/01 03:47:12;;;;;;;22.17;18.33;;;9.50;99.90;;;;;;5072787;28;20791;-77
2021/11/01 03:49:48;;;;;;;24.00;18.57;;;9.50;99.90;;;;;;5072502;28;20802;-78
2021/11/01 03:52:20;;;;;;;22.23;18.67;;;9.50;99.90;;;;;;5072916;28;20978;-78
2021/11/01 03:54:47;;;;;;;24.40;19.70;;;9.50;99.90;;;;;;5072529;28;20446;-78
2021/11/01 03:57:15;;;;;;;27.23;19.23;;;9.50;99.90;;;;;;5072653;28;20443;-78
2021/11/01 03:59:41;;;;;;;26.73;20.27;;;9.50;99.90;;;;;;5072401;28;20471;-78
2021/11/01 04:02:13;;;;;;;25.57;19.13;;;9.50;99.90;;;;;;5072306;28;20526;-78
2021/11/01 04:04:42;;;;;;;23.77;19.43;;;9.60;99.90;;;;;;5072734;28;20478;-78
2021/11/01 04:07:09;;;;;;;25.53;20.47;;;9.60;99.90;;;;;;5072465;28;20534;-78
2021/11/01 04:09:36;;;;;;;21.77;18.97;;;9.50;99.90;;;;;;5072522;28;20521;-78
2021/11/01 04:12:03;;;;;;;24.17;18.87;;;9.50;99.90;;;;;;5072371;28;20557;-77
2021/11/01 04:14:37;;;;;;;29.03;20.70;;;9.50;99.90;;;;;;5068102;28;20449;-78
2021/11/01 04:17:10;;;;;;;24.83;20.27;;;9.50;99.90;;;;;;5065198;28;20535;-78
2021/11/01 04:19:45;;;;;;;24.70;19.27;;;9.50;99.90;;;;;;5072271;28;20474;-78
2021/11/01 04:22:13;;;;;;;24.67;18.20;;;9.50;99.90;;;;;;5071946;28;20509;-78
2021/11/01 04:24:40;;;;;;;28.93;20.73;;;9.50;99.90;;;;;;5072064;28;20443;-78
2021/11/01 04:27:06;;;;;;;23.23;19.93;;;9.50;99.90;;;;;;5071857;28;20494;-78
2021/11/01 04:29:33;;;;;;;27.50;20.70;;;9.50;99.90;;;;;;5074609;28;20480;-78
2021/11/01 04:32:10;;;;;;;26.83;20.50;;;9.50;99.90;;;;;;5075840;28;20499;-78
2021/11/01 04:34:40;;;;;;;26.47;20.33;;;9.50;99.90;;;;;;5076513;28;20928;-78
2021/11/01 04:37:06;;;;;;;24.30;20.67;;;9.50;99.90;;;;;;5075866;28;20530;-78
2021/11/01 04:39:42;;;;;;;25.87;21.20;;;9.40;99.90;;;;;;5075885;28;20486;-78
2021/11/01 04:53:16;;;;;;;24.50;19.30;;;9.40;99.90;;;;;;5075670;28;20524;-78
2021/11/01 04:55:44;;;;;;;26.27;19.80;;;9.40;99.90;;;;;;5075499;28;20873;-78
2021/11/01 04:58:11;;;;;;;26.70;20.67;;;9.40;99.90;;;;;;5075587;28;20450;-77
2021/11/01 05:00:38;;;;;;;22.70;19.50;;;9.40;99.90;;;;;;5075088;28;20451;-77
2021/11/01 05:03:09;;;;;;;27.23;21.23;;;9.40;99.90;;;;;;5075288;28;20446;-77
2021/11/01 05:05:36;;;;;;;25.73;21.03;;;9.40;99.90;;;;;;5073000;28;20796;-78
2021/11/01 05:08:04;;;;;;;23.47;20.47;;;9.30;99.90;;;;;;5074939;28;20467;-78
2021/11/01 05:10:34;;;;;;;25.33;20.40;;;9.30;99.90;;;;;;5075385;28;20496;-78
2021/11/01 05:13:08;;;;;;;25.17;20.00;;;9.30;99.90;;;;;;5075150;28;20507;-77
2021/11/01 05:15:38;;;;;;;25.57;21.10;;;9.30;99.90;;;;;;5063212;28;20448;-77
2021/11/01 05:18:16;;;;;;;24.70;21.57;;;9.30;99.90;;;;;;5075539;28;20540;-77
2021/11/01 05:20:45;;;;;;;25.20;20.10;;;9.30;99.90;;;;;;5074944;28;20443;-82
2021/11/01 05:23:16;;;;;;;27.07;22.00;;;9.20;99.90;;;;;;5074265;28;20484;-80
2021/11/01 05:25:45;;;;;;;28.43;21.60;;;9.20;99.90;;;;;;5072084;28;20986;-83
2021/11/01 05:28:23;;;;;;;23.90;20.80;;;9.20;99.90;;;;;;5074274;28;20448;-82
2021/11/01 05:30:53;;;;;;;25.20;20.63;;;9.20;99.90;;;;;;5074641;28;20457;-83
2021/11/01 05:33:48;;;;;;;26.30;21.00;;;9.20;99.90;;;;;;5075096;28;20985;-83
2021/11/01 05:36:15;;;;;;;28.53;22.43;;;9.30;99.90;;;;;;5061816;28;20451;-84
2021/11/01 05:38:42;;;;;;;28.20;21.60;;;9.40;99.90;;;;;;5074976;28;20448;-84
2021/11/01 05:41:09;;;;;;;25.33;20.20;;;9.40;99.90;;;;;;5073972;28;21338;-84
2021/11/01 05:43:37;;;;;;;24.53;21.10;;;9.50;99.90;;;;;;5074994;28;20810;-82
2021/11/01 05:46:03;;;;;;;21.87;18.87;;;9.60;99.90;;;;;;5074757;28;20479;-80
2021/11/01 05:48:30;;;;;;;23.83;20.90;;;9.70;99.90;;;;;;5073817;28;20847;-81
2021/11/01 05:50:57;;;;;;;25.60;21.83;;;9.80;99.90;;;;;;5074117;28;20448;-81
2021/11/01 05:53:28;;;;;;;27.70;20.87;;;9.90;99.90;;;;;;5073825;28;20529;-81
2021/11/01 05:56:00;;;;;;;24.80;21.40;;;9.90;99.90;;;;;;5057818;28;20443;-81
2021/11/01 05:58:34;;;;;;;26.97;20.67;;;10.00;99.90;;;;;;5074542;28;20662;-80
2021/11/01 06:01:22;;;;;;;26.43;21.13;;;10.10;99.90;;;;;;5073902;28;20926;-81
2021/11/01 06:04:00;;;;;;;25.40;21.17;;;10.20;99.90;;;;;;5074453;28;20486;-82
2021/11/01 06:06:40;;;;;;;28.40;22.83;;;10.20;99.90;;;;;;5073926;28;20478;-82
2021/11/01 06:09:20;;;;;;;25.10;21.23;;;10.30;99.90;;;;;;5072539;28;21004;-82
2021/11/01 06:14:31;;;;;;;25.80;21.10;;;10.50;99.90;;;;;;5074821;28;20492;-82
2021/11/01 06:17:02;;;;;;;28.77;21.40;;;10.50;99.90;;;;;;5073485;28;20435;-85
2021/11/01 06:19:28;;;;;;;24.80;20.83;;;10.60;99.90;;;;;;5074005;28;20838;-81
2021/11/01 06:21:55;;;;;;;24.30;20.30;;;10.60;99.90;;;;;;5073603;28;20439;-77
2021/11/01 06:24:48;;;;;;;25.43;19.93;;;10.70;99.90;;;;;;5074178;28;20443;-77
2021/11/01 06:27:16;;;;;;;24.07;20.40;;;10.70;99.90;;;;;;5074001;28;20550;-77
2021/11/01 06:29:57;;;;;;;28.30;23.07;;;10.80;99.90;;;;;;5074013;28;20780;-77
2021/11/01 06:32:33;;;;;;;23.80;21.20;;;10.80;99.90;;;;;;5073649;28;20554;-77
2021/11/01 06:40:36;;;;;;;24.20;20.10;;;10.90;99.90;;;;;;5072913;28;20451;-78
2021/11/01 06:43:07;;;;;;;22.87;20.27;;;11.00;99.90;;;;;;5073320;28;20496;-77
2021/11/01 06:45:42;;;;;;;23.70;19.83;;;11.00;99.90;;;;;;5070982;28;20454;-78
2021/11/01 06:51:05;;;;;;;27.50;21.77;;;11.20;99.90;;;;;;5072559;28;20906;-76
2021/11/01 06:56:43;;;;;;;28.43;20.57;;;11.30;99.90;;;;;;5071329;28;20946;-77
2021/11/01 07:15:39;;;;;;;24.10;20.60;;;12.00;99.90;;;;;;5074345;28;20451;-79
2021/11/01 07:18:10;;;;;;;24.23;20.03;;;12.20;99.90;;;;;;5072571;28;20897;-79
2021/11/01 07:20:48;;;;;;;23.97;19.60;;;12.30;99.90;;;;;;5073103;28;20546;-79
2021/11/01 08:27:10;;;;;;;27.73;20.73;;;12.80;99.90;;;;;;5072291;28;20499;-80
2021/11/01 08:29:56;;;;;;;31.60;24.20;;;12.80;99.90;;;;;;5072575;28;20470;-75
2021/11/01 08:46:45;;;;;;;26.63;20.60;;;13.00;99.90;;;;;;5062865;28;20534;-76
2021/11/01 08:49:29;;;;;;;24.17;19.53;;;13.10;99.90;;;;;;5071609;28;20451;-76
2021/11/01 09:03:24;;;;;;;22.03;19.57;;;14.00;99.90;;;;;;5048826;28;20439;-76
2021/11/01 09:06:06;;;;;;;22.87;19.20;;;14.00;99.90;;;;;;5064135;28;20436;-76
2021/11/01 09:25:13;;;;;;;22.00;19.60;;;14.00;99.90;;;;;;5067528;28;20457;-76
2021/11/01 09:27:43;;;;;;;25.40;20.60;;;13.90;99.90;;;;;;5075268;28;20505;-77
2021/11/01 09:30:33;;;;;;;26.07;19.33;;;13.90;99.90;;;;;;5074834;28;20509;-77
2021/11/01 09:36:04;;;;;;;23.93;18.83;;;13.80;99.90;;;;;;5072965;28;20445;-76
2021/11/01 09:38:55;;;;;;;21.10;18.80;;;13.80;99.90;;;;;;5061719;28;20523;-76
2021/11/01 09:41:22;;;;;;;22.20;18.97;;;13.80;99.90;;;;;;5073769;28;20447;-76
2021/11/01 09:43:52;;;;;;;22.70;17.77;;;13.90;99.90;;;;;;5074541;28;20989;-77
2021/11/01 09:46:21;;;;;;;22.60;18.67;;;13.90;99.90;;;;;;5074469;28;20451;-77
2021/11/01 09:48:53;;;;;;;20.77;17.23;;;13.90;99.90;;;;;;5074824;28;20448;-76
2021/11/01 09:51:20;;;;;;;30.90;20.43;;;14.00;99.90;;;;;;5074522;28;20448;-76
2021/11/01 09:53:48;;;;;;;23.00;16.97;;;14.10;99.90;;;;;;5074540;28;20524;-76
2021/11/01 09:56:21;;;;;;;19.03;17.13;;;14.10;99.90;;;;;;5074586;28;20443;-77
2021/11/01 10:01:33;;;;;;;21.20;18.10;;;14.30;99.90;;;;;;5071715;28;20529;-76
2021/11/01 10:04:02;;;;;;;20.20;17.77;;;14.30;99.90;;;;;;5074395;28;20474;-77
2021/11/01 10:06:30;;;;;;;26.00;17.37;;;14.40;99.90;;;;;;5074192;28;20444;-76
2021/11/01 10:08:58;;;;;;;22.93;16.33;;;14.50;99.90;;;;;;5074108;28;20452;-77
2021/11/01 10:11:27;;;;;;;17.93;15.97;;;14.50;99.90;;;;;;5074442;28;20484;-77
2021/11/01 10:13:56;;;;;;;22.00;16.93;;;14.60;99.90;;;;;;5059604;28;20475;-77
2021/11/01 10:19:26;;;;;;;20.07;16.77;;;14.60;99.90;;;;;;5074036;28;20438;-76
2021/11/01 10:21:54;;;;;;;18.00;14.87;;;14.60;99.90;;;;;;5074452;28;20451;-76
2021/11/01 10:24:25;;;;;;;17.17;14.97;;;14.60;99.90;;;;;;5073926;28;20509;-76
2021/11/01 10:26:54;;;;;;;22.90;15.57;;;14.60;99.90;;;;;;5073062;28;20822;-77
2021/11/01 10:29:21;;;;;;;19.07;15.83;;;14.70;99.90;;;;;;5073296;28;20447;-76
2021/11/01 10:31:47;;;;;;;22.07;15.80;;;14.70;99.90;;;;;;5073724;28;20510;-77
2021/11/01 10:34:16;;;;;;;19.70;15.60;;;14.70;99.90;;;;;;5073788;28;20481;-76
2021/11/01 10:36:45;;;;;;;19.13;16.60;;;14.70;99.90;;;;;;5073915;28;20471;-76
2021/11/01 10:39:17;;;;;;;16.97;14.90;;;14.70;99.90;;;;;;5073532;28;20483;-77
2021/11/01 10:41:49;;;;;;;21.60;16.80;;;14.70;99.90;;;;;;5073825;28;20455;-77
2021/11/01 10:44:40;;;;;;;23.47;15.90;;;14.70;99.90;;;;;;5073291;28;20448;-77
2021/11/01 10:58:39;;;;;;;22.50;16.43;;;15.20;99.90;;;;;;5073286;28;20473;-77
2021/11/01 11:12:24;;;;;;;19.70;14.73;;;15.60;99.90;;;;;;5059996;28;20443;-76
2021/11/01 11:14:54;;;;;;;15.90;14.00;;;15.70;99.90;;;;;;5071746;28;20509;-77
2021/11/01 11:17:28;;;;;;;17.27;15.53;;;15.70;99.90;;;;;;5072547;28;20952;-76
2021/11/01 11:23:26;;;;;;;18.40;13.17;;;15.60;99.90;;;;;;5073022;28;20439;-76
2021/11/01 11:26:16;;;;;;;19.53;13.83;;;15.60;99.90;;;;;;5072557;28;20468;-76
2021/11/01 11:32:08;;;;;;;18.43;14.77;;;15.60;99.90;;;;;;5059387;28;20443;-76
2021/11/01 11:41:06;;;;;;;20.63;14.43;;;15.70;99.90;;;;;;5064443;28;20443;-76
2021/11/01 11:49:07;;;;;;;16.63;14.63;;;15.50;99.90;;;;;;5072400;28;20447;-76
2021/11/01 11:51:33;;;;;;;15.97;13.37;;;15.40;99.90;;;;;;5069695;28;20509;-76
2021/11/01 11:54:02;;;;;;;20.00;15.00;;;15.50;99.90;;;;;;5072235;28;20573;-76
2021/11/01 11:56:32;;;;;;;18.10;13.50;;;15.40;99.90;;;;;;5072065;28;20444;-76
2021/11/01 11:59:00;;;;;;;17.87;15.37;;;15.40;99.90;;;;;;5072339;28;20472;-76
2021/11/01 12:01:29;;;;;;;24.60;14.93;;;15.40;99.90;;;;;;5072042;28;20450;-76
2021/11/01 12:03:57;;;;;;;22.07;16.63;;;15.40;99.90;;;;;;5059464;28;20502;-76
2021/11/01 12:06:44;;;;;;;18.87;15.63;;;15.40;99.90;;;;;;5072344;28;20591;-76
2021/11/01 12:09:14;;;;;;;19.60;16.00;;;15.40;99.90;;;;;;5072237;28;20451;-76
2021/11/01 12:12:08;;;;;;;20.53;15.67;;;15.40;99.90;;;;;;5072164;28;20455;-76
2021/11/01 12:14:42;;;;;;;23.53;17.37;;;15.30;99.90;;;;;;5070836;28;21015;-76
2021/11/01 12:17:09;;;;;;;17.27;15.50;;;15.20;99.90;;;;;;5072193;28;20443;-77
2021/11/01 12:19:36;;;;;;;20.90;16.70;;;15.10;99.90;;;;;;5072145;28;20447;-76
2021/11/01 12:22:07;;;;;;;20.13;16.30;;;15.10;99.90;;;;;;5072698;28;20476;-76
2021/11/01 12:24:34;;;;;;;18.97;14.43;;;15.00;99.90;;;;;;5071952;28;20493;-76
2021/11/01 12:27:05;;;;;;;19.73;16.90;;;14.90;99.90;;;;;;5071904;28;20462;-76
2021/11/01 12:29:32;;;;;;;20.03;15.97;;;14.90;99.90;;;;;;5069169;28;20477;-76
2021/11/01 12:32:06;;;;;;;17.67;15.17;;;14.80;99.90;;;;;;5071980;28;20454;-76
2021/11/01 12:34:36;;;;;;;18.63;15.33;;;14.80;99.90;;;;;;5071969;28;20483;-76
2021/11/01 12:37:08;;;;;;;17.80;15.90;;;14.70;99.90;;;;;;5072122;28;20454;-77
2021/11/01 12:39:38;;;;;;;18.60;15.67;;;14.60;99.90;;;;;;5069651;28;20536;-76
2021/11/01 12:42:22;;;;;;;19.90;15.27;;;14.60;99.90;;;;;;5071989;28;20799;-76
2021/11/01 12:48:12;;;;;;;19.60;15.27;;;14.40;99.90;;;;;;5069379;28;20938;-76
2021/11/01 12:58:57;;;;;;;15.57;13.87;;;14.50;99.90;;;;;;5075607;28;20945;-76
2021/11/01 13:01:25;;;;;;;15.23;13.27;;;14.50;99.90;;;;;;5075567;28;20439;-76
2021/11/01 13:03:55;;;;;;;16.03;13.93;;;14.50;99.90;;;;;;5075339;28;20440;-76
2021/11/01 13:06:35;;;;;;;17.97;14.90;;;14.50;99.90;;;;;;5071567;28;20450;-76
2021/11/01 13:09:08;;;;;;;16.80;13.87;;;14.50;99.90;;;;;;5064773;28;20504;-76
2021/11/01 13:11:44;;;;;;;15.00;13.40;;;14.50;99.90;;;;;;5067869;28;20459;-76
2021/11/01 13:14:41;;;;;;;17.03;13.00;;;14.40;99.90;;;;;;5060813;28;20569;-76
2021/11/01 13:19:54;;;;;;;16.87;13.30;;;14.20;99.90;;;;;;5060613;28;20430;-76
2021/11/01 13:22:24;;;;;;;15.33;11.50;;;14.10;99.90;;;;;;5074963;28;20435;-76
2021/11/01 13:24:58;;;;;;;15.60;11.80;;;14.10;99.90;;;;;;5074848;28;20443;-76
2021/11/01 13:27:36;;;;;;;13.57;12.17;;;14.10;99.90;;;;;;5075174;28;20451;-76
2021/11/01 13:35:50;;;;;;;11.80;9.57;;;14.20;99.90;;;;;;5073054;28;20502;-76
2021/11/01 13:38:25;;;;;;;11.00;8.50;;;14.20;99.90;;;;;;5074640;28;20475;-76
2021/11/01 13:40:52;;;;;;;9.30;7.97;;;14.10;99.90;;;;;;5069512;28;20457;-76
2021/11/01 13:43:26;;;;;;;7.93;6.63;;;14.20;99.90;;;;;;5074460;28;20443;-76
2021/11/01 13:45:54;;;;;;;7.20;6.50;;;14.10;99.90;;;;;;5074529;28;20452;-76
2021/11/01 13:48:26;;;;;;;9.40;6.40;;;14.20;99.90;;;;;;5074084;28;20935;-76
2021/11/01 13:51:02;;;;;;;7.20;6.27;;;14.20;99.90;;;;;;5074722;28;20451;-76
2021/11/01 13:53:30;;;;;;;6.70;5.60;;;14.30;99.90;;;;;;5074095;28;20861;-76
2021/11/01 13:56:19;;;;;;;9.40;6.30;;;14.30;99.90;;;;;;5074279;28;20447;-76
2021/11/01 13:58:57;;;;;;;7.90;5.43;;;14.30;99.90;;;;;;5074188;28;20444;-76
2021/11/01 14:01:40;;;;;;;8.10;6.50;;;14.30;99.90;;;;;;5073386;28;20444;-76
2021/11/01 14:12:40;;;;;;;8.60;6.50;;;14.00;99.90;;;;;;5074069;28;20466;-77
2021/11/01 14:15:10;;;;;;;6.33;5.70;;;13.90;99.90;;;;;;5072278;28;20985;-76
2021/11/01 14:18:04;;;;;;;6.30;5.60;;;13.80;99.90;;;;;;5073813;28;20443;-83
2021/11/01 14:20:43;;;;;;;7.50;5.77;;;13.80;99.90;;;;;;5073263;28;20481;-82
2021/11/01 14:28:59;;;;;;;9.17;4.40;;;13.60;99.90;;;;;;5071088;28;20450;-82
2021/11/01 15:02:11;;;;;;;3.13;2.83;;;12.50;99.90;;;;;;5070060;28;20439;-82
2021/11/01 15:10:51;;;;;;;2.90;2.17;;;12.30;99.90;;;;;;5060394;28;20436;-82
2021/11/01 15:13:31;;;;;;;3.83;2.50;;;12.20;99.90;;;;;;5072345;28;20438;-80
2021/11/01 15:16:17;;;;;;;5.00;2.13;;;12.20;99.90;;;;;;5072838;28;20478;-80
2021/11/01 15:18:58;;;;;;;4.40;2.47;;;12.20;99.90;;;;;;5072679;28;20443;-80
2021/11/01 15:21:32;;;;;;;4.20;2.33;;;12.10;99.90;;;;;;5072656;28;20535;-80
2021/11/01 15:35:23;;;;;;;3.57;2.93;;;12.00;99.90;;;;;;5072271;28;20812;-79
2021/11/01 16:19:12;;;;;;;5.80;4.63;;;11.90;99.90;;;;;;5069191;28;20443;-79
2021/11/01 16:21:39;;;;;;;8.63;5.10;;;11.90;99.90;;;;;;5071826;28;20435;-79
2021/11/01 16:24:06;;;;;;;4.73;4.23;;;11.90;99.90;;;;;;5071940;28;20444;-79
2021/11/01 16:26:35;;;;;;;5.40;4.80;;;11.90;99.90;;;;;;5075633;28;20520;-79
2021/11/01 16:29:07;;;;;;;6.37;5.07;;;11.90;99.90;;;;;;5076004;28;20444;-79
2021/11/01 16:31:44;;;;;;;6.20;4.20;;;11.80;99.90;;;;;;5073647;28;20524;-79
2021/11/01 16:34:15;;;;;;;4.37;3.70;;;11.80;99.90;;;;;;5075848;28;20497;-79
2021/11/01 16:39:46;;;;;;;4.53;4.13;;;11.80;99.90;;;;;;5074932;28;20522;-78
2021/11/01 16:42:14;;;;;;;5.07;4.57;;;11.70;99.90;;;;;;5072678;28;20451;-79
2021/11/01 16:44:43;;;;;;;8.40;4.43;;;11.70;99.90;;;;;;5074091;28;20802;-79
2021/11/01 16:47:09;;;;;;;7.70;4.80;;;11.70;99.90;;;;;;5072085;28;20810;-79
2021/11/01 16:49:36;;;;;;;6.50;4.77;;;11.70;99.90;;;;;;5073990;28;20479;-79
2021/11/01 16:52:11;;;;;;;5.53;4.33;;;11.70;99.90;;;;;;5074456;28;20455;-79
2021/11/01 16:54:39;;;;;;;5.47;3.90;;;11.70;99.90;;;;;;5074216;28;20475;-79
2021/11/01 16:57:12;;;;;;;8.50;4.80;;;11.70;99.90;;;;;;5073990;28;20496;-79
2021/11/01 16:59:50;;;;;;;5.67;4.37;;;11.70;99.90;;;;;;5072429;28;20451;-79
2021/11/01 17:02:34;;;;;;;6.63;4.70;;;11.70;99.90;;;;;;5073306;28;20455;-79
2021/11/01 17:05:05;;;;;;;6.00;4.27;;;11.60;99.90;;;;;;5074021;28;20547;-79
2021/11/01 17:07:43;;;;;;;5.93;4.60;;;11.60;99.90;;;;;;5072442;28;20955;-79
2021/11/01 17:10:42;;;;;;;6.43;4.47;;;11.60;99.90;;;;;;5072262;28;20458;-79
2021/11/01 17:21:46;;;;;;;4.23;3.87;;;11.60;99.90;;;;;;4984149;28;20454;-79
2021/11/01 17:24:18;;;;;;;6.63;4.43;;;11.60;99.90;;;;;;5034860;28;20508;-79
2021/11/01 17:26:58;;;;;;;8.10;4.70;;;11.60;99.90;;;;;;5073217;28;20478;-82
2021/11/01 17:30:05;;;;;;;5.40;4.30;;;11.60;99.90;;;;;;5073011;28;20837;-79
2021/11/01 17:35:49;;;;;;;4.70;4.30;;;11.60;99.90;;;;;;4992550;28;20866;-79
2021/11/01 18:40:07;;;;;;;6.37;4.17;;;11.50;99.90;;;;;;5073820;28;20810;-81
2021/11/01 18:43:04;;;;;;;6.20;4.67;;;11.50;99.90;;;;;;5073406;28;20452;-81
2021/11/01 18:51:08;;;;;;;4.53;3.67;;;11.50;99.90;;;;;;5073467;28;20934;-80
2021/11/01 18:53:37;;;;;;;5.23;3.60;;;11.40;99.90;;;;;;5070843;28;20837;-82
2021/11/01 18:56:08;;;;;;;6.77;4.13;;;11.50;99.90;;;;;;5073027;28;20482;-80
2021/11/01 18:58:36;;;;;;;5.07;3.37;;;11.50;99.90;;;;;;5073678;28;20510;-80
2021/11/01 19:01:05;;;;;;;4.87;3.87;;;11.40;99.90;;;;;;5073310;28;20447;-80
2021/11/01 19:03:35;;;;;;;3.43;3.13;;;11.40;99.90;;;;;;5073222;28;20642;-80
2021/11/01 19:06:10;;;;;;;5.30;3.60;;;11.40;99.90;;;;;;5073255;28;20468;-80
2021/11/01 19:08:49;;;;;;;4.87;3.70;;;11.40;99.90;;;;;;5072769;28;20930;-80
2021/11/01 19:12:00;;;;;;;4.10;3.77;;;11.40;99.90;;;;;;5073045;28;20466;-81
2021/11/01 20:04:47;;;;;;;13.07;10.17;;;11.30;99.90;;;;;;5072283;28;20478;-81
2021/11/01 20:10:52;;;;;;;8.20;7.30;;;11.30;99.90;;;;;;5072382;28;20795;-82
2021/11/01 20:13:33;;;;;;;10.80;8.77;;;11.40;99.90;;;;;;5069128;28;20470;-81
2021/11/01 21:25:19;;;;;;;2.80;2.60;;;10.90;99.90;;;;;;5074711;28;21007;-79
2021/11/01 21:27:46;;;;;;;7.97;6.40;;;10.90;99.90;;;;;;5075003;28;20447;-80
2021/11/01 21:30:13;;;;;;;10.23;8.63;;;10.90;99.90;;;;;;5074609;28;20497;-80
2021/11/01 21:32:40;;;;;;;11.37;8.57;;;10.90;99.90;;;;;;5074886;28;20448;-77
2021/11/01 21:35:09;;;;;;;5.67;4.70;;;10.90;99.90;;;;;;5074004;28;20513;-78
2021/11/01 21:37:36;;;;;;;18.60;11.70;;;10.90;99.90;;;;;;5074493;28;20444;-78
2021/11/01 21:40:06;;;;;;;3.70;3.40;;;10.90;99.90;;;;;;5074345;28;20984;-77
2021/11/01 21:42:34;;;;;;;4.23;2.80;;;10.90;99.90;;;;;;5074167;28;20451;-77
2021/11/01 21:45:01;;;;;;;3.90;3.47;;;10.90;99.90;;;;;;5074062;28;20495;-77